Training Ship Golden Bear — NMRY — position and weather

sailwx.info

Track history (hours):
 
Tides and Currents Weather Stations Pressure Air Temp Water Temp Dewpoint Dewpoint Depression Visibility Wind Speed Wind Dir Waves Ship Positions

Training Ship Golden Bear (United States)

Training ship for California Maritime Academy. Ex USNS Maury T-AGS-39. Sister ship of training ship "State of Maine". See also http://www.csum.edu/MarinePrograms/tsgb.asp.

Ship's website: http://cma-virtualftv.csum.edu/wordpress/

Last reported at 2015-Aug-24 20:28 UTC. Time now 2015-Sep-05 05:41 UTC.
Position N 38°04' W 122°14'.
Warning: this ship's position is 11 days out of date.

Type: Ship. MMSI: 367978000.

Date/timePositionNaut miles runAvg speedWind from/ knotsBaromVisibWave heightAir tempDewpointWater temp
2015-Aug-24 20:28N 38°04' W 122°14'3 3.9
2015-Aug-24 19:33N 38°03' W 122°18'1111.1
2015-Aug-24 18:33N 37°54' W 122°27'1211.6
2015-Aug-24 17:33N 37°46' W 122°37'1010.2
2015-Aug-24 16:33N 37°36' W 122°40'9 9.2
2015-Aug-24 15:33N 37°27' W 122°40'1010.3
2015-Aug-24 14:33N 37°17' W 122°40'1010.1
2015-Aug-24 13:33N 37°07' W 122°36'1613.7
2015-Aug-24 12:22N 36°52' W 122°30'1214.3
2015-Aug-24 11:33N 36°41' W 122°24'4515.0
2015-Aug-24 08:32N 35°60' W 122°01'813.8
2015-Aug-24 08:00N 36°06' W 122°06'2353.2 330 / 231012.0 5.4 1.017.817.017.2
2015-Aug-24 07:33N 35°46' W 121°51'1615.9
2015-Aug-24 06:33N 35°32' W 121°42'2850.1
2015-Aug-24 06:00N 35°12' W 121°18'1323.8 330 / 181013.010.8 1.018.317.017.8
2015-Aug-24 05:26N 35°17' W 121°33'1214.2
2015-Aug-24 04:34N 35°06' W 121°26'1616.5
2015-Aug-24 03:34N 34°52' W 121°17'1817.8
2015-Aug-24 02:34N 34°36' W 121°07'1817.7
2015-Aug-24 01:33N 34°20' W 120°57'1918.3
2015-Aug-24 00:30N 34°03' W 120°45'1715.4
2015-Aug-23 23:22N 33°50' W 120°32'8115.0
2015-Aug-23 18:00N 33°24' W 119°00'2315.8 310 / 211014.510.8 21.020.020.5
2015-Aug-23 16:33N 33°38' W 118°39'1714.6
2015-Aug-23 15:22N 33°38' W 118°18'7 9.1
2015-Aug-23 14:34N 33°43' W 118°11'3 2.8
2015-Aug-23 13:33N 33°45' W 118°13'0 0.0
2015-Aug-23 12:33N 33°45' W 118°13'0 0.0
2015-Aug-23 11:33N 33°45' W 118°13'0 0.0
2015-Aug-23 10:33N 33°45' W 118°13'0 0.0
2015-Aug-23 09:30N 33°45' W 118°13'0 0.0
2015-Aug-23 08:33N 33°45' W 118°13'0 0.0
2015-Aug-23 07:33N 33°45' W 118°13'0 0.0
2015-Aug-23 06:33N 33°45' W 118°13'0 0.0
2015-Aug-23 05:33N 33°45' W 118°13'0 0.0
2015-Aug-23 04:30N 33°45' W 118°13'0 0.0
2015-Aug-23 03:33N 33°45' W 118°13'0 0.0
2015-Aug-23 02:33N 33°45' W 118°13'0 0.0
2015-Aug-23 01:33N 33°45' W 118°13'0 0.0
2015-Aug-23 00:33N 33°45' W 118°13'0 0.0
2015-Aug-22 23:33N 33°45' W 118°13'0 0.0
2015-Aug-22 22:33N 33°45' W 118°13'0 0.0
2015-Aug-22 21:33N 33°45' W 118°13'0 0.0
2015-Aug-22 20:33N 33°45' W 118°13'0 0.0
2015-Aug-22 19:33N 33°45' W 118°13'0 0.0
2015-Aug-22 18:33N 33°45' W 118°13'0 0.0
2015-Aug-22 17:33N 33°45' W 118°13'0 0.0
2015-Aug-22 16:33N 33°45' W 118°13'0 0.0
2015-Aug-22 15:33N 33°45' W 118°13'0 0.0
2015-Aug-22 14:33N 33°45' W 118°13'0 0.0
2015-Aug-22 13:33N 33°45' W 118°13'0 0.0
2015-Aug-22 12:33N 33°45' W 118°13'0 0.0
2015-Aug-22 11:33N 33°45' W 118°13'0 0.0
2015-Aug-22 10:33N 33°45' W 118°13'0 0.0
2015-Aug-22 09:33N 33°45' W 118°13'0 0.0
2015-Aug-22 08:33N 33°45' W 118°13'0 0.0
2015-Aug-22 07:33N 33°45' W 118°13'0 0.0
2015-Aug-22 06:33N 33°45' W 118°13'0 0.0
2015-Aug-22 05:33N 33°45' W 118°13'0 0.0
2015-Aug-22 04:33N 33°45' W 118°13'0 0.0
2015-Aug-22 03:30N 33°45' W 118°13'0 0.0
2015-Aug-22 02:33N 33°45' W 118°13'0 0.0
2015-Aug-22 01:33N 33°45' W 118°13'0 0.0
2015-Aug-22 00:33N 33°45' W 118°13'0 0.0
2015-Aug-21 23:33N 33°45' W 118°13'0 0.0
2015-Aug-21 22:33N 33°45' W 118°13'0 0.0
2015-Aug-21 21:33N 33°45' W 118°13'0 0.0
2015-Aug-21 20:33N 33°45' W 118°13'0 0.0
2015-Aug-21 19:33N 33°45' W 118°13'0 0.0
2015-Aug-21 18:33N 33°45' W 118°13'0 0.0
2015-Aug-21 17:33N 33°45' W 118°13'0 0.0
2015-Aug-21 16:33N 33°45' W 118°13'0 0.0
2015-Aug-21 15:33N 33°45' W 118°13'1 1.3
2015-Aug-21 14:33N 33°44' W 118°12'9 8.4
2015-Aug-21 13:32N 33°36' W 118°10'7 6.9
2015-Aug-21 12:33N 33°29' W 118°07'1010.4
2015-Aug-21 11:33N 33°20' W 118°03'1110.6
2015-Aug-21 10:33N 33°10' W 117°57'9 8.8
2015-Aug-21 09:33N 33°04' W 117°49'3 3.4
2015-Aug-21 08:33N 33°08' W 117°48'9 8.7
2015-Aug-21 07:33N 33°15' W 117°55'9 9.5
2015-Aug-21 06:33N 33°06' W 117°51'10 9.8
2015-Aug-21 05:33N 32°57' W 117°47'10 9.7
2015-Aug-21 04:33N 32°49' W 117°40'10 9.5
2015-Aug-21 03:33N 32°41' W 117°34'9 9.4
2015-Aug-21 02:33N 32°31' W 117°32'34 9.4
2015-Aug-20 23:00N 32°00' W 117°18'11210.2 320 / 161100.910.8 1.021.018.021.0
2015-Aug-20 12:00N 30°12' W 116°42'8810.4 340 / 231101.010.8 20.2 21.1
2015-Aug-20 03:31N 28°49' W 116°10'5410.1
2015-Aug-19 22:08N 27°59' W 115°43'11010.9
2015-Aug-19 12:00N 26°30' W 114°30'12210.2 020 / 391011.0 0.5 26.025.0
2015-Aug-19 00:00N 24°54' W 113°06'13711.5 310 / 151009.710.8 28.526.027.2
2015-Aug-18 12:00N 23°00' W 111°42'   140 / 61011.510.8 27.026.029.4
2015-Aug-15 12:00N 14°06' W 095°00'8714.5 350 / 101009.0 5.4 0.528.828.829.4
2015-Aug-15 06:00N 13°36' W 093°36'9515.8 040 / 111010.4 5.4 29.926.030.0
2015-Aug-15 00:00N 12°48' W 092°12'   360 / 61007.110.8 30.026.030.6
Track history (hours):
 
Tides and Currents Weather Stations Pressure Air Temp Water Temp Dewpoint Dewpoint Depression Visibility Wind Speed Wind Dir Waves Ship Positions

Training Ship Golden Bear (United States)

Training ship for California Maritime Academy. Ex USNS Maury T-AGS-39. Sister ship of training ship "State of Maine". See also http://www.csum.edu/MarinePrograms/tsgb.asp.

Ship's website: http://cma-virtualftv.csum.edu/wordpress/

Last reported at 2015-Aug-24 20:28 UTC. Time now 2015-Sep-05 05:41 UTC.
Position N 38°04' W 122°14'.
Warning: this ship's position is 11 days out of date.

Type: Ship. MMSI: 367978000.

Date/timePositionNaut miles runAvg speedWind from/ knotsBaromVisibWave heightAir tempDewpointWater temp
2015-Aug-24 20:28N 38°04' W 122°14'3 3.9
2015-Aug-24 19:33N 38°03' W 122°18'1111.1
2015-Aug-24 18:33N 37°54' W 122°27'1211.6
2015-Aug-24 17:33N 37°46' W 122°37'1010.2
2015-Aug-24 16:33N 37°36' W 122°40'9 9.2
2015-Aug-24 15:33N 37°27' W 122°40'1010.3
2015-Aug-24 14:33N 37°17' W 122°40'1010.1
2015-Aug-24 13:33N 37°07' W 122°36'1613.7
2015-Aug-24 12:22N 36°52' W 122°30'1214.3
2015-Aug-24 11:33N 36°41' W 122°24'4515.0
2015-Aug-24 08:32N 35°60' W 122°01'813.8
2015-Aug-24 08:00N 36°06' W 122°06'2353.2 330 / 231012.0 5.4 1.017.817.017.2
2015-Aug-24 07:33N 35°46' W 121°51'1615.9
2015-Aug-24 06:33N 35°32' W 121°42'2850.1
2015-Aug-24 06:00N 35°12' W 121°18'1323.8 330 / 181013.010.8 1.018.317.017.8
2015-Aug-24 05:26N 35°17' W 121°33'1214.2
2015-Aug-24 04:34N 35°06' W 121°26'1616.5
2015-Aug-24 03:34N 34°52' W 121°17'1817.8
2015-Aug-24 02:34N 34°36' W 121°07'1817.7
2015-Aug-24 01:33N 34°20' W 120°57'1918.3
2015-Aug-24 00:30N 34°03' W 120°45'1715.4
2015-Aug-23 23:22N 33°50' W 120°32'8115.0
2015-Aug-23 18:00N 33°24' W 119°00'2315.8 310 / 211014.510.8 21.020.020.5
2015-Aug-23 16:33N 33°38' W 118°39'1714.6
2015-Aug-23 15:22N 33°38' W 118°18'7 9.1
2015-Aug-23 14:34N 33°43' W 118°11'3 2.8
2015-Aug-23 13:33N 33°45' W 118°13'0 0.0
2015-Aug-23 12:33N 33°45' W 118°13'0 0.0
2015-Aug-23 11:33N 33°45' W 118°13'0 0.0
2015-Aug-23 10:33N 33°45' W 118°13'0 0.0
2015-Aug-23 09:30N 33°45' W 118°13'0 0.0
2015-Aug-23 08:33N 33°45' W 118°13'0 0.0
2015-Aug-23 07:33N 33°45' W 118°13'0 0.0
2015-Aug-23 06:33N 33°45' W 118°13'0 0.0
2015-Aug-23 05:33N 33°45' W 118°13'0 0.0
2015-Aug-23 04:30N 33°45' W 118°13'0 0.0
2015-Aug-23 03:33N 33°45' W 118°13'0 0.0
2015-Aug-23 02:33N 33°45' W 118°13'0 0.0
2015-Aug-23 01:33N 33°45' W 118°13'0 0.0
2015-Aug-23 00:33N 33°45' W 118°13'0 0.0
2015-Aug-22 23:33N 33°45' W 118°13'0 0.0
2015-Aug-22 22:33N 33°45' W 118°13'0 0.0
2015-Aug-22 21:33N 33°45' W 118°13'0 0.0
2015-Aug-22 20:33N 33°45' W 118°13'0 0.0
2015-Aug-22 19:33N 33°45' W 118°13'0 0.0
2015-Aug-22 18:33N 33°45' W 118°13'0 0.0
2015-Aug-22 17:33N 33°45' W 118°13'0 0.0
2015-Aug-22 16:33N 33°45' W 118°13'0 0.0
2015-Aug-22 15:33N 33°45' W 118°13'0 0.0
2015-Aug-22 14:33N 33°45' W 118°13'0 0.0
2015-Aug-22 13:33N 33°45' W 118°13'0 0.0
2015-Aug-22 12:33N 33°45' W 118°13'0 0.0
2015-Aug-22 11:33N 33°45' W 118°13'0 0.0
2015-Aug-22 10:33N 33°45' W 118°13'0 0.0
2015-Aug-22 09:33N 33°45' W 118°13'0 0.0
2015-Aug-22 08:33N 33°45' W 118°13'0 0.0
2015-Aug-22 07:33N 33°45' W 118°13'0 0.0
2015-Aug-22 06:33N 33°45' W 118°13'0 0.0
2015-Aug-22 05:33N 33°45' W 118°13'0 0.0
2015-Aug-22 04:33N 33°45' W 118°13'0 0.0
2015-Aug-22 03:30N 33°45' W 118°13'0 0.0
2015-Aug-22 02:33N 33°45' W 118°13'0 0.0
2015-Aug-22 01:33N 33°45' W 118°13'0 0.0
2015-Aug-22 00:33N 33°45' W 118°13'0 0.0
2015-Aug-21 23:33N 33°45' W 118°13'0 0.0
2015-Aug-21 22:33N 33°45' W 118°13'0 0.0
2015-Aug-21 21:33N 33°45' W 118°13'0 0.0
2015-Aug-21 20:33N 33°45' W 118°13'0 0.0
2015-Aug-21 19:33N 33°45' W 118°13'0 0.0
2015-Aug-21 18:33N 33°45' W 118°13'0 0.0
2015-Aug-21 17:33N 33°45' W 118°13'0 0.0
2015-Aug-21 16:33N 33°45' W 118°13'0 0.0
2015-Aug-21 15:33N 33°45' W 118°13'1 1.3
2015-Aug-21 14:33N 33°44' W 118°12'9 8.4
2015-Aug-21 13:32N 33°36' W 118°10'7 6.9
2015-Aug-21 12:33N 33°29' W 118°07'1010.4
2015-Aug-21 11:33N 33°20' W 118°03'1110.6
2015-Aug-21 10:33N 33°10' W 117°57'9 8.8
2015-Aug-21 09:33N 33°04' W 117°49'3 3.4
2015-Aug-21 08:33N 33°08' W 117°48'9 8.7
2015-Aug-21 07:33N 33°15' W 117°55'9 9.5
2015-Aug-21 06:33N 33°06' W 117°51'10 9.8
2015-Aug-21 05:33N 32°57' W 117°47'10 9.7
2015-Aug-21 04:33N 32°49' W 117°40'10 9.5
2015-Aug-21 03:33N 32°41' W 117°34'9 9.4
2015-Aug-21 02:33N 32°31' W 117°32'34 9.4
2015-Aug-20 23:00N 32°00' W 117°18'11210.2 320 / 161100.910.8 1.021.018.021.0
2015-Aug-20 12:00N 30°12' W 116°42'8810.4 340 / 231101.010.8 20.2 21.1
2015-Aug-20 03:31N 28°49' W 116°10'5410.1
2015-Aug-19 22:08N 27°59' W 115°43'11010.9
2015-Aug-19 12:00N 26°30' W 114°30'12210.2 020 / 391011.0 0.5 26.025.0
2015-Aug-19 00:00N 24°54' W 113°06'13711.5 310 / 151009.710.8 28.526.027.2
2015-Aug-18 12:00N 23°00' W 111°42'   140 / 61011.510.8 27.026.029.4
2015-Aug-15 12:00N 14°06' W 095°00'8714.5 350 / 101009.0 5.4 0.528.828.829.4
2015-Aug-15 06:00N 13°36' W 093°36'9515.8 040 / 111010.4 5.4 29.926.030.0
2015-Aug-15 00:00N 12°48' W 092°12'   360 / 61007.110.8 30.026.030.6

Dump ship's entire track history